sensor_id;sensor_type;location;lat;lon;timestamp;P1;durP1;ratioP1;P2;durP2;ratioP2
7233;SDS011;3658;47.992;10.158;2023-11-21T00:00:32;1.37;;;1.20;;
7233;SDS011;3658;47.992;10.158;2023-11-21T00:02:58;1.90;;;1.30;;
7233;SDS011;3658;47.992;10.158;2023-11-21T00:05:25;2.07;;;1.10;;
7233;SDS011;3658;47.992;10.158;2023-11-21T00:07:53;1.73;;;1.10;;
7233;SDS011;3658;47.992;10.158;2023-11-21T00:10:20;1.13;;;1.03;;
7233;SDS011;3658;47.992;10.158;2023-11-21T00:12:47;1.20;;;1.10;;
7233;SDS011;3658;47.992;10.158;2023-11-21T00:15:14;1.10;;;1.00;;
7233;SDS011;3658;47.992;10.158;2023-11-21T00:17:41;1.63;;;1.10;;
7233;SDS011;3658;47.992;10.158;2023-11-21T00:20:08;2.27;;;1.13;;
7233;SDS011;3658;47.992;10.158;2023-11-21T00:22:37;2.40;;;1.10;;
7233;SDS011;3658;47.992;10.158;2023-11-21T00:25:07;2.10;;;1.00;;
7233;SDS011;3658;47.992;10.158;2023-11-21T00:27:34;1.57;;;1.20;;
7233;SDS011;3658;47.992;10.158;2023-11-21T00:30:01;1.30;;;1.00;;
7233;SDS011;3658;47.992;10.158;2023-11-21T00:32:29;1.23;;;1.03;;
7233;SDS011;3658;47.992;10.158;2023-11-21T00:34:56;1.67;;;1.20;;
7233;SDS011;3658;47.992;10.158;2023-11-21T00:37:24;2.27;;;1.20;;
7233;SDS011;3658;47.992;10.158;2023-11-21T00:39:51;2.20;;;1.20;;
7233;SDS011;3658;47.992;10.158;2023-11-21T00:42:19;2.23;;;1.17;;
7233;SDS011;3658;47.992;10.158;2023-11-21T00:44:46;1.90;;;1.10;;
7233;SDS011;3658;47.992;10.158;2023-11-21T00:47:13;1.60;;;1.00;;
7233;SDS011;3658;47.992;10.158;2023-11-21T00:49:40;1.17;;;0.90;;
7233;SDS011;3658;47.992;10.158;2023-11-21T00:52:07;0.90;;;0.90;;
7233;SDS011;3658;47.992;10.158;2023-11-21T00:54:34;1.30;;;0.93;;
7233;SDS011;3658;47.992;10.158;2023-11-21T00:57:01;1.30;;;0.93;;
7233;SDS011;3658;47.992;10.158;2023-11-21T00:59:29;1.50;;;1.00;;
7233;SDS011;3658;47.992;10.158;2023-11-21T01:01:56;1.60;;;1.03;;
7233;SDS011;3658;47.992;10.158;2023-11-21T01:04:25;1.60;;;0.90;;
7233;SDS011;3658;47.992;10.158;2023-11-21T01:06:52;1.00;;;0.90;;
7233;SDS011;3658;47.992;10.158;2023-11-21T01:09:19;1.63;;;1.13;;
7233;SDS011;3658;47.992;10.158;2023-11-21T01:11:45;1.33;;;1.20;;
7233;SDS011;3658;47.992;10.158;2023-11-21T01:14:12;1.77;;;1.00;;
7233;SDS011;3658;47.992;10.158;2023-11-21T01:16:41;1.73;;;1.10;;
7233;SDS011;3658;47.992;10.158;2023-11-21T01:19:07;1.50;;;1.03;;
7233;SDS011;3658;47.992;10.158;2023-11-21T01:21:35;1.10;;;1.00;;
7233;SDS011;3658;47.992;10.158;2023-11-21T01:24:02;2.10;;;1.17;;
7233;SDS011;3658;47.992;10.158;2023-11-21T01:26:32;1.80;;;1.10;;
7233;SDS011;3658;47.992;10.158;2023-11-21T01:28:59;1.43;;;1.20;;
7233;SDS011;3658;47.992;10.158;2023-11-21T01:31:25;1.50;;;1.00;;
7233;SDS011;3658;47.992;10.158;2023-11-21T01:33:55;1.33;;;1.17;;
7233;SDS011;3658;47.992;10.158;2023-11-21T01:36:22;3.10;;;1.10;;
7233;SDS011;3658;47.992;10.158;2023-11-21T01:38:56;1.57;;;1.00;;
7233;SDS011;3658;47.992;10.158;2023-11-21T01:41:24;1.83;;;1.20;;
7233;SDS011;3658;47.992;10.158;2023-11-21T01:43:52;1.37;;;0.97;;
7233;SDS011;3658;47.992;10.158;2023-11-21T01:46:18;1.30;;;1.10;;
7233;SDS011;3658;47.992;10.158;2023-11-21T01:48:46;1.10;;;0.90;;
7233;SDS011;3658;47.992;10.158;2023-11-21T01:51:15;1.27;;;1.00;;
7233;SDS011;3658;47.992;10.158;2023-11-21T01:53:43;1.40;;;1.10;;
7233;SDS011;3658;47.992;10.158;2023-11-21T01:56:11;0.97;;;0.87;;
7233;SDS011;3658;47.992;10.158;2023-11-21T01:58:39;1.00;;;0.90;;
7233;SDS011;3658;47.992;10.158;2023-11-21T02:01:06;1.90;;;1.10;;
7233;SDS011;3658;47.992;10.158;2023-11-21T02:03:35;2.30;;;0.93;;
7233;SDS011;3658;47.992;10.158;2023-11-21T02:06:01;1.27;;;1.00;;
7233;SDS011;3658;47.992;10.158;2023-11-21T02:08:30;1.80;;;1.17;;
7233;SDS011;3658;47.992;10.158;2023-11-21T02:10:56;1.97;;;0.97;;
7233;SDS011;3658;47.992;10.158;2023-11-21T02:13:23;1.63;;;1.10;;
7233;SDS011;3658;47.992;10.158;2023-11-21T02:15:50;1.83;;;1.10;;
7233;SDS011;3658;47.992;10.158;2023-11-21T02:18:19;1.33;;;1.00;;
7233;SDS011;3658;47.992;10.158;2023-11-21T02:20:47;2.47;;;1.00;;
7233;SDS011;3658;47.992;10.158;2023-11-21T02:23:15;1.97;;;1.00;;
7233;SDS011;3658;47.992;10.158;2023-11-21T02:25:43;2.33;;;0.90;;
7233;SDS011;3658;47.992;10.158;2023-11-21T02:28:09;1.10;;;0.90;;
7233;SDS011;3658;47.992;10.158;2023-11-21T02:30:37;1.00;;;0.90;;
7233;SDS011;3658;47.992;10.158;2023-11-21T02:33:04;0.80;;;0.80;;
7233;SDS011;3658;47.992;10.158;2023-11-21T02:35:32;1.20;;;1.10;;
7233;SDS011;3658;47.992;10.158;2023-11-21T02:38:00;1.73;;;1.13;;
7233;SDS011;3658;47.992;10.158;2023-11-21T02:40:28;1.33;;;0.83;;
7233;SDS011;3658;47.992;10.158;2023-11-21T02:42:55;0.90;;;0.90;;
7233;SDS011;3658;47.992;10.158;2023-11-21T02:45:24;1.80;;;1.03;;
7233;SDS011;3658;47.992;10.158;2023-11-21T02:47:51;1.53;;;0.90;;
7233;SDS011;3658;47.992;10.158;2023-11-21T02:50:21;0.83;;;0.83;;
7233;SDS011;3658;47.992;10.158;2023-11-21T02:52:48;2.07;;;0.90;;
7233;SDS011;3658;47.992;10.158;2023-11-21T02:55:16;1.43;;;1.00;;
7233;SDS011;3658;47.992;10.158;2023-11-21T02:57:44;1.50;;;1.00;;
7233;SDS011;3658;47.992;10.158;2023-11-21T03:00:11;1.27;;;1.00;;
7233;SDS011;3658;47.992;10.158;2023-11-21T03:02:40;1.00;;;0.90;;
7233;SDS011;3658;47.992;10.158;2023-11-21T03:05:07;1.23;;;1.00;;
7233;SDS011;3658;47.992;10.158;2023-11-21T03:07:34;0.73;;;0.73;;
7233;SDS011;3658;47.992;10.158;2023-11-21T03:10:02;1.03;;;0.87;;
7233;SDS011;3658;47.992;10.158;2023-11-21T03:12:29;2.23;;;0.97;;
7233;SDS011;3658;47.992;10.158;2023-11-21T03:14:57;0.73;;;0.70;;
7233;SDS011;3658;47.992;10.158;2023-11-21T03:17:24;1.20;;;1.00;;
7233;SDS011;3658;47.992;10.158;2023-11-21T03:19:51;1.83;;;1.10;;
7233;SDS011;3658;47.992;10.158;2023-11-21T03:22:18;1.67;;;0.80;;
7233;SDS011;3658;47.992;10.158;2023-11-21T03:24:45;1.30;;;1.00;;
7233;SDS011;3658;47.992;10.158;2023-11-21T03:27:11;1.43;;;1.20;;
7233;SDS011;3658;47.992;10.158;2023-11-21T03:29:38;1.47;;;0.90;;
7233;SDS011;3658;47.992;10.158;2023-11-21T03:32:07;1.37;;;0.90;;
7233;SDS011;3658;47.992;10.158;2023-11-21T03:34:33;1.30;;;1.03;;
7233;SDS011;3658;47.992;10.158;2023-11-21T03:37:00;0.80;;;0.80;;
7233;SDS011;3658;47.992;10.158;2023-11-21T03:39:27;1.20;;;1.00;;
7233;SDS011;3658;47.992;10.158;2023-11-21T03:41:54;1.00;;;0.90;;
7233;SDS011;3658;47.992;10.158;2023-11-21T03:44:21;1.97;;;0.83;;
7233;SDS011;3658;47.992;10.158;2023-11-21T03:46:49;1.13;;;1.00;;
7233;SDS011;3658;47.992;10.158;2023-11-21T03:49:17;0.73;;;0.70;;
7233;SDS011;3658;47.992;10.158;2023-11-21T03:51:45;0.90;;;0.90;;
7233;SDS011;3658;47.992;10.158;2023-11-21T03:54:12;0.80;;;0.80;;
7233;SDS011;3658;47.992;10.158;2023-11-21T03:56:39;1.10;;;1.00;;
7233;SDS011;3658;47.992;10.158;2023-11-21T03:59:06;1.10;;;1.00;;
7233;SDS011;3658;47.992;10.158;2023-11-21T04:01:33;1.60;;;0.97;;
7233;SDS011;3658;47.992;10.158;2023-11-21T04:04:00;1.57;;;1.07;;
7233;SDS011;3658;47.992;10.158;2023-11-21T04:06:28;1.40;;;0.90;;
7233;SDS011;3658;47.992;10.158;2023-11-21T04:08:55;0.80;;;0.80;;
7233;SDS011;3658;47.992;10.158;2023-11-21T04:11:22;1.03;;;0.93;;
7233;SDS011;3658;47.992;10.158;2023-11-21T04:13:48;1.07;;;0.90;;
7233;SDS011;3658;47.992;10.158;2023-11-21T04:16:15;1.37;;;1.00;;
7233;SDS011;3658;47.992;10.158;2023-11-21T04:18:43;0.70;;;0.70;;
7233;SDS011;3658;47.992;10.158;2023-11-21T04:21:10;1.10;;;1.00;;
7233;SDS011;3658;47.992;10.158;2023-11-21T04:23:38;0.80;;;0.80;;
7233;SDS011;3658;47.992;10.158;2023-11-21T04:26:06;0.80;;;0.80;;
7233;SDS011;3658;47.992;10.158;2023-11-21T04:28:33;0.70;;;0.70;;
7233;SDS011;3658;47.992;10.158;2023-11-21T04:30:59;1.07;;;0.90;;
7233;SDS011;3658;47.992;10.158;2023-11-21T04:33:27;1.23;;;0.77;;
7233;SDS011;3658;47.992;10.158;2023-11-21T04:35:54;0.67;;;0.67;;
7233;SDS011;3658;47.992;10.158;2023-11-21T04:38:20;0.97;;;0.80;;
7233;SDS011;3658;47.992;10.158;2023-11-21T04:40:48;1.10;;;1.00;;
7233;SDS011;3658;47.992;10.158;2023-11-21T04:43:15;1.20;;;0.90;;
7233;SDS011;3658;47.992;10.158;2023-11-21T04:45:42;1.17;;;0.83;;
7233;SDS011;3658;47.992;10.158;2023-11-21T04:48:09;0.80;;;0.80;;
7233;SDS011;3658;47.992;10.158;2023-11-21T04:50:36;0.70;;;0.57;;
7233;SDS011;3658;47.992;10.158;2023-11-21T04:53:04;0.60;;;0.60;;
7233;SDS011;3658;47.992;10.158;2023-11-21T04:55:31;1.10;;;1.00;;
7233;SDS011;3658;47.992;10.158;2023-11-21T04:57:59;1.00;;;0.90;;
7233;SDS011;3658;47.992;10.158;2023-11-21T05:00:26;1.03;;;0.80;;
7233;SDS011;3658;47.992;10.158;2023-11-21T05:02:52;0.80;;;0.80;;
7233;SDS011;3658;47.992;10.158;2023-11-21T05:05:19;1.17;;;0.97;;
7233;SDS011;3658;47.992;10.158;2023-11-21T05:07:46;0.90;;;0.90;;
7233;SDS011;3658;47.992;10.158;2023-11-21T05:10:14;1.03;;;0.90;;
7233;SDS011;3658;47.992;10.158;2023-11-21T05:12:41;0.93;;;0.70;;
7233;SDS011;3658;47.992;10.158;2023-11-21T05:15:10;0.70;;;0.70;;
7233;SDS011;3658;47.992;10.158;2023-11-21T05:17:41;1.30;;;1.00;;
7233;SDS011;3658;47.992;10.158;2023-11-21T05:20:08;0.70;;;0.70;;
7233;SDS011;3658;47.992;10.158;2023-11-21T05:22:36;0.70;;;0.70;;
7233;SDS011;3658;47.992;10.158;2023-11-21T05:25:03;0.73;;;0.70;;
7233;SDS011;3658;47.992;10.158;2023-11-21T05:27:32;0.80;;;0.80;;
7233;SDS011;3658;47.992;10.158;2023-11-21T05:30:00;0.80;;;0.80;;
7233;SDS011;3658;47.992;10.158;2023-11-21T05:32:28;1.03;;;0.90;;
7233;SDS011;3658;47.992;10.158;2023-11-21T05:34:55;0.83;;;0.83;;
7233;SDS011;3658;47.992;10.158;2023-11-21T05:37:22;0.77;;;0.63;;
7233;SDS011;3658;47.992;10.158;2023-11-21T05:39:49;0.63;;;0.63;;
7233;SDS011;3658;47.992;10.158;2023-11-21T05:42:16;0.60;;;0.60;;
7233;SDS011;3658;47.992;10.158;2023-11-21T05:44:43;0.70;;;0.70;;
7233;SDS011;3658;47.992;10.158;2023-11-21T05:47:10;0.70;;;0.70;;
7233;SDS011;3658;47.992;10.158;2023-11-21T05:49:40;0.90;;;0.70;;
7233;SDS011;3658;47.992;10.158;2023-11-21T05:52:07;1.70;;;0.70;;
7233;SDS011;3658;47.992;10.158;2023-11-21T05:54:35;1.00;;;0.80;;
7233;SDS011;3658;47.992;10.158;2023-11-21T05:57:02;2.63;;;1.20;;
7233;SDS011;3658;47.992;10.158;2023-11-21T05:59:29;1.20;;;0.90;;
7233;SDS011;3658;47.992;10.158;2023-11-21T06:01:56;1.13;;;0.80;;
7233;SDS011;3658;47.992;10.158;2023-11-21T06:04:23;0.90;;;0.87;;
7233;SDS011;3658;47.992;10.158;2023-11-21T06:06:52;2.93;;;0.83;;
7233;SDS011;3658;47.992;10.158;2023-11-21T06:09:19;3.33;;;1.07;;
7233;SDS011;3658;47.992;10.158;2023-11-21T06:11:47;1.77;;;1.00;;
7233;SDS011;3658;47.992;10.158;2023-11-21T06:14:14;2.20;;;0.90;;
7233;SDS011;3658;47.992;10.158;2023-11-21T06:16:43;1.90;;;0.80;;
7233;SDS011;3658;47.992;10.158;2023-11-21T06:19:10;1.43;;;0.80;;
7233;SDS011;3658;47.992;10.158;2023-11-21T06:21:38;1.63;;;0.80;;
7233;SDS011;3658;47.992;10.158;2023-11-21T06:24:06;1.40;;;1.03;;
7233;SDS011;3658;47.992;10.158;2023-11-21T06:26:33;1.17;;;0.83;;
7233;SDS011;3658;47.992;10.158;2023-11-21T06:29:00;0.87;;;0.87;;
7233;SDS011;3658;47.992;10.158;2023-11-21T06:31:28;1.03;;;0.90;;
7233;SDS011;3658;47.992;10.158;2023-11-21T06:33:57;0.93;;;0.80;;
7233;SDS011;3658;47.992;10.158;2023-11-21T06:36:25;0.87;;;0.80;;
7233;SDS011;3658;47.992;10.158;2023-11-21T06:38:52;0.93;;;0.70;;
7233;SDS011;3658;47.992;10.158;2023-11-21T06:41:21;0.70;;;0.70;;
7233;SDS011;3658;47.992;10.158;2023-11-21T06:43:48;2.00;;;0.90;;
7233;SDS011;3658;47.992;10.158;2023-11-21T06:46:15;0.93;;;0.80;;
7233;SDS011;3658;47.992;10.158;2023-11-21T06:48:42;0.80;;;0.80;;
7233;SDS011;3658;47.992;10.158;2023-11-21T06:51:09;0.80;;;0.80;;
7233;SDS011;3658;47.992;10.158;2023-11-21T06:53:36;1.20;;;1.10;;
7233;SDS011;3658;47.992;10.158;2023-11-21T06:56:03;0.77;;;0.77;;
7233;SDS011;3658;47.992;10.158;2023-11-21T06:58:33;0.97;;;0.87;;
7233;SDS011;3658;47.992;10.158;2023-11-21T07:01:01;0.90;;;0.90;;
7233;SDS011;3658;47.992;10.158;2023-11-21T07:03:27;0.67;;;0.67;;
7233;SDS011;3658;47.992;10.158;2023-11-21T07:05:54;0.80;;;0.80;;
7233;SDS011;3658;47.992;10.158;2023-11-21T07:08:21;1.00;;;0.80;;
7233;SDS011;3658;47.992;10.158;2023-11-21T07:10:48;0.87;;;0.87;;
7233;SDS011;3658;47.992;10.158;2023-11-21T07:13:15;3.43;;;1.00;;
7233;SDS011;3658;47.992;10.158;2023-11-21T07:15:43;1.33;;;0.93;;
7233;SDS011;3658;47.992;10.158;2023-11-21T07:18:10;3.43;;;0.90;;
7233;SDS011;3658;47.992;10.158;2023-11-21T07:20:37;0.80;;;0.80;;
7233;SDS011;3658;47.992;10.158;2023-11-21T07:23:03;2.77;;;1.20;;
7233;SDS011;3658;47.992;10.158;2023-11-21T07:25:30;1.73;;;1.23;;
7233;SDS011;3658;47.992;10.158;2023-11-21T07:27:58;3.53;;;1.10;;
7233;SDS011;3658;47.992;10.158;2023-11-21T07:30:26;3.27;;;1.43;;
7233;SDS011;3658;47.992;10.158;2023-11-21T07:32:54;1.97;;;1.17;;
7233;SDS011;3658;47.992;10.158;2023-11-21T07:35:21;1.97;;;1.10;;
7233;SDS011;3658;47.992;10.158;2023-11-21T07:37:48;1.47;;;1.10;;
7233;SDS011;3658;47.992;10.158;2023-11-21T07:40:15;2.57;;;1.30;;
7233;SDS011;3658;47.992;10.158;2023-11-21T07:42:42;2.37;;;1.33;;
7233;SDS011;3658;47.992;10.158;2023-11-21T07:45:09;2.90;;;1.07;;
7233;SDS011;3658;47.992;10.158;2023-11-21T07:47:36;2.57;;;1.27;;
7233;SDS011;3658;47.992;10.158;2023-11-21T07:50:06;5.10;;;1.50;;
7233;SDS011;3658;47.992;10.158;2023-11-21T07:52:33;1.27;;;1.03;;
7233;SDS011;3658;47.992;10.158;2023-11-21T07:55:00;1.13;;;1.03;;
7233;SDS011;3658;47.992;10.158;2023-11-21T07:57:27;2.03;;;1.27;;
7233;SDS011;3658;47.992;10.158;2023-11-21T07:59:54;4.17;;;1.17;;
7233;SDS011;3658;47.992;10.158;2023-11-21T08:02:21;1.77;;;1.03;;
7233;SDS011;3658;47.992;10.158;2023-11-21T08:04:48;4.47;;;1.10;;
7233;SDS011;3658;47.992;10.158;2023-11-21T08:07:17;2.03;;;1.03;;
7233;SDS011;3658;47.992;10.158;2023-11-21T08:09:44;1.80;;;1.13;;
7233;SDS011;3658;47.992;10.158;2023-11-21T08:12:11;2.27;;;1.27;;
7233;SDS011;3658;47.992;10.158;2023-11-21T08:14:39;3.30;;;1.30;;
7233;SDS011;3658;47.992;10.158;2023-11-21T08:17:06;3.27;;;1.43;;
7233;SDS011;3658;47.992;10.158;2023-11-21T08:19:35;1.30;;;1.20;;
7233;SDS011;3658;47.992;10.158;2023-11-21T08:22:02;1.63;;;1.10;;
7233;SDS011;3658;47.992;10.158;2023-11-21T08:24:30;1.63;;;1.20;;
7233;SDS011;3658;47.992;10.158;2023-11-21T08:26:57;1.77;;;1.10;;
7233;SDS011;3658;47.992;10.158;2023-11-21T08:29:24;1.17;;;1.00;;
7233;SDS011;3658;47.992;10.158;2023-11-21T08:31:51;1.20;;;1.10;;
7233;SDS011;3658;47.992;10.158;2023-11-21T08:34:18;2.93;;;1.23;;
7233;SDS011;3658;47.992;10.158;2023-11-21T08:36:45;1.80;;;1.30;;
7233;SDS011;3658;47.992;10.158;2023-11-21T08:39:12;2.23;;;1.50;;
7233;SDS011;3658;47.992;10.158;2023-11-21T08:41:42;2.77;;;1.00;;
7233;SDS011;3658;47.992;10.158;2023-11-21T08:44:09;1.20;;;1.10;;
7233;SDS011;3658;47.992;10.158;2023-11-21T08:46:36;2.47;;;1.23;;
7233;SDS011;3658;47.992;10.158;2023-11-21T08:49:04;1.23;;;1.00;;
7233;SDS011;3658;47.992;10.158;2023-11-21T08:51:31;1.10;;;1.00;;
7233;SDS011;3658;47.992;10.158;2023-11-21T08:53:58;1.67;;;1.10;;
7233;SDS011;3658;47.992;10.158;2023-11-21T08:56:27;1.37;;;1.27;;
7233;SDS011;3658;47.992;10.158;2023-11-21T08:58:55;1.80;;;1.10;;
7233;SDS011;3658;47.992;10.158;2023-11-21T09:01:22;1.20;;;1.10;;
7233;SDS011;3658;47.992;10.158;2023-11-21T09:03:49;2.30;;;1.10;;
7233;SDS011;3658;47.992;10.158;2023-11-21T09:06:16;1.10;;;1.00;;
7233;SDS011;3658;47.992;10.158;2023-11-21T09:08:43;1.70;;;1.00;;
7233;SDS011;3658;47.992;10.158;2023-11-21T09:11:10;2.10;;;1.23;;
7233;SDS011;3658;47.992;10.158;2023-11-21T09:13:37;2.27;;;1.43;;
7233;SDS011;3658;47.992;10.158;2023-11-21T09:16:05;2.90;;;1.10;;
7233;SDS011;3658;47.992;10.158;2023-11-21T09:18:32;2.10;;;1.00;;
7233;SDS011;3658;47.992;10.158;2023-11-21T09:20:59;1.63;;;1.20;;
7233;SDS011;3658;47.992;10.158;2023-11-21T09:23:26;2.60;;;1.10;;
7233;SDS011;3658;47.992;10.158;2023-11-21T09:25:52;1.20;;;1.10;;
7233;SDS011;3658;47.992;10.158;2023-11-21T09:28:22;1.33;;;1.10;;
7233;SDS011;3658;47.992;10.158;2023-11-21T09:30:48;1.23;;;1.13;;
7233;SDS011;3658;47.992;10.158;2023-11-21T09:33:17;1.20;;;1.10;;
7233;SDS011;3658;47.992;10.158;2023-11-21T09:35:44;1.67;;;1.17;;
7233;SDS011;3658;47.992;10.158;2023-11-21T09:38:10;3.97;;;1.10;;
7233;SDS011;3658;47.992;10.158;2023-11-21T09:40:37;2.20;;;1.13;;
7233;SDS011;3658;47.992;10.158;2023-11-21T09:43:05;1.20;;;1.10;;
7233;SDS011;3658;47.992;10.158;2023-11-21T09:45:41;1.10;;;0.93;;
7233;SDS011;3658;47.992;10.158;2023-11-21T09:48:11;1.03;;;0.90;;
7233;SDS011;3658;47.992;10.158;2023-11-21T09:50:40;0.93;;;0.90;;
7233;SDS011;3658;47.992;10.158;2023-11-21T09:53:10;0.90;;;0.90;;
7233;SDS011;3658;47.992;10.158;2023-11-21T09:55:42;1.17;;;1.07;;
7233;SDS011;3658;47.992;10.158;2023-11-21T09:58:10;0.87;;;0.87;;
7233;SDS011;3658;47.992;10.158;2023-11-21T10:00:39;0.90;;;0.90;;
7233;SDS011;3658;47.992;10.158;2023-11-21T10:03:08;1.10;;;1.00;;
7233;SDS011;3658;47.992;10.158;2023-11-21T10:05:35;0.90;;;0.83;;
7233;SDS011;3658;47.992;10.158;2023-11-21T10:08:03;0.93;;;0.93;;
7233;SDS011;3658;47.992;10.158;2023-11-21T10:10:33;1.00;;;0.90;;
7233;SDS011;3658;47.992;10.158;2023-11-21T10:13:01;1.30;;;1.20;;
7233;SDS011;3658;47.992;10.158;2023-11-21T10:15:31;1.13;;;1.07;;
7233;SDS011;3658;47.992;10.158;2023-11-21T10:18:01;1.10;;;1.00;;
7233;SDS011;3658;47.992;10.158;2023-11-21T10:20:29;1.00;;;1.00;;
7233;SDS011;3658;47.992;10.158;2023-11-21T10:22:58;1.00;;;0.90;;
7233;SDS011;3658;47.992;10.158;2023-11-21T10:25:28;1.83;;;1.13;;
7233;SDS011;3658;47.992;10.158;2023-11-21T10:27:57;1.20;;;1.10;;
7233;SDS011;3658;47.992;10.158;2023-11-21T10:30:31;1.20;;;0.93;;
7233;SDS011;3658;47.992;10.158;2023-11-21T10:33:02;1.27;;;1.00;;
7233;SDS011;3658;47.992;10.158;2023-11-21T10:35:39;0.80;;;0.80;;
7233;SDS011;3658;47.992;10.158;2023-11-21T10:38:11;1.30;;;0.90;;
7233;SDS011;3658;47.992;10.158;2023-11-21T10:40:40;0.70;;;0.70;;
7233;SDS011;3658;47.992;10.158;2023-11-21T10:43:07;1.37;;;0.90;;
7233;SDS011;3658;47.992;10.158;2023-11-21T10:45:35;0.83;;;0.83;;
7233;SDS011;3658;47.992;10.158;2023-11-21T10:48:05;0.83;;;0.80;;
7233;SDS011;3658;47.992;10.158;2023-11-21T10:50:33;0.73;;;0.73;;
7233;SDS011;3658;47.992;10.158;2023-11-21T10:53:01;1.03;;;0.93;;
7233;SDS011;3658;47.992;10.158;2023-11-21T10:55:30;1.10;;;1.00;;
7233;SDS011;3658;47.992;10.158;2023-11-21T10:57:59;1.23;;;1.00;;
7233;SDS011;3658;47.992;10.158;2023-11-21T11:00:28;1.03;;;1.00;;
7233;SDS011;3658;47.992;10.158;2023-11-21T11:02:55;0.90;;;0.90;;
7233;SDS011;3658;47.992;10.158;2023-11-21T11:05:24;1.10;;;1.00;;
7233;SDS011;3658;47.992;10.158;2023-11-21T11:07:52;1.10;;;0.97;;
7233;SDS011;3658;47.992;10.158;2023-11-21T11:10:26;1.00;;;0.90;;
7233;SDS011;3658;47.992;10.158;2023-11-21T11:12:54;1.00;;;0.90;;
7233;SDS011;3658;47.992;10.158;2023-11-21T11:15:23;0.90;;;0.90;;
7233;SDS011;3658;47.992;10.158;2023-11-21T11:17:51;1.10;;;0.97;;
7233;SDS011;3658;47.992;10.158;2023-11-21T11:20:21;0.97;;;0.90;;
7233;SDS011;3658;47.992;10.158;2023-11-21T11:22:50;0.93;;;0.87;;
7233;SDS011;3658;47.992;10.158;2023-11-21T11:25:33;1.10;;;1.00;;
7233;SDS011;3658;47.992;10.158;2023-11-21T11:28:14;0.77;;;0.77;;
7233;SDS011;3658;47.992;10.158;2023-11-21T11:30:50;1.40;;;1.00;;
7233;SDS011;3658;47.992;10.158;2023-11-21T11:33:30;1.23;;;1.00;;
7233;SDS011;3658;47.992;10.158;2023-11-21T11:36:03;0.70;;;0.70;;
7233;SDS011;3658;47.992;10.158;2023-11-21T11:38:34;1.13;;;1.00;;
7233;SDS011;3658;47.992;10.158;2023-11-21T11:41:02;0.83;;;0.83;;
7233;SDS011;3658;47.992;10.158;2023-11-21T11:43:30;0.90;;;0.90;;
7233;SDS011;3658;47.992;10.158;2023-11-21T11:45:59;1.13;;;0.97;;
7233;SDS011;3658;47.992;10.158;2023-11-21T11:48:29;0.93;;;0.93;;
7233;SDS011;3658;47.992;10.158;2023-11-21T11:51:01;0.97;;;0.90;;
7233;SDS011;3658;47.992;10.158;2023-11-21T11:53:33;0.87;;;0.80;;
7233;SDS011;3658;47.992;10.158;2023-11-21T11:58:50;0.97;;;0.97;;
7233;SDS011;3658;47.992;10.158;2023-11-21T12:01:19;0.90;;;0.90;;
7233;SDS011;3658;47.992;10.158;2023-11-21T12:06:48;1.00;;;0.80;;
7233;SDS011;3658;47.992;10.158;2023-11-21T12:09:17;1.47;;;0.87;;
7233;SDS011;3658;47.992;10.158;2023-11-21T12:11:45;0.80;;;0.80;;
7233;SDS011;3658;47.992;10.158;2023-11-21T12:14:12;0.77;;;0.77;;
7233;SDS011;3658;47.992;10.158;2023-11-21T12:16:42;1.00;;;0.93;;
7233;SDS011;3658;47.992;10.158;2023-11-21T12:19:09;1.20;;;0.90;;
7233;SDS011;3658;47.992;10.158;2023-11-21T12:21:36;0.80;;;0.80;;
7233;SDS011;3658;47.992;10.158;2023-11-21T12:24:03;0.83;;;0.80;;
7233;SDS011;3658;47.992;10.158;2023-11-21T12:26:33;0.83;;;0.83;;
7233;SDS011;3658;47.992;10.158;2023-11-21T12:29:01;1.00;;;0.90;;
7233;SDS011;3658;47.992;10.158;2023-11-21T12:31:29;0.90;;;0.90;;
7233;SDS011;3658;47.992;10.158;2023-11-21T12:33:58;0.80;;;0.80;;
7233;SDS011;3658;47.992;10.158;2023-11-21T12:36:25;0.87;;;0.87;;
7233;SDS011;3658;47.992;10.158;2023-11-21T12:38:54;2.07;;;1.10;;
7233;SDS011;3658;47.992;10.158;2023-11-21T12:41:21;0.80;;;0.80;;
7233;SDS011;3658;47.992;10.158;2023-11-21T12:43:48;1.57;;;0.90;;
7233;SDS011;3658;47.992;10.158;2023-11-21T12:46:15;0.70;;;0.70;;
7233;SDS011;3658;47.992;10.158;2023-11-21T12:48:43;0.60;;;0.60;;
7233;SDS011;3658;47.992;10.158;2023-11-21T12:51:12;0.90;;;0.70;;
7233;SDS011;3658;47.992;10.158;2023-11-21T12:53:41;1.10;;;1.00;;
7233;SDS011;3658;47.992;10.158;2023-11-21T12:56:09;0.97;;;0.80;;
7233;SDS011;3658;47.992;10.158;2023-11-21T12:58:36;0.80;;;0.80;;
7233;SDS011;3658;47.992;10.158;2023-11-21T13:01:04;0.77;;;0.77;;
7233;SDS011;3658;47.992;10.158;2023-11-21T13:03:37;1.70;;;0.70;;
7233;SDS011;3658;47.992;10.158;2023-11-21T13:06:05;0.97;;;0.87;;
7233;SDS011;3658;47.992;10.158;2023-11-21T13:08:34;0.97;;;0.93;;
7233;SDS011;3658;47.992;10.158;2023-11-21T13:11:04;1.07;;;0.90;;
7233;SDS011;3658;47.992;10.158;2023-11-21T13:13:32;0.80;;;0.73;;
7233;SDS011;3658;47.992;10.158;2023-11-21T13:15:59;1.00;;;0.90;;
7233;SDS011;3658;47.992;10.158;2023-11-21T13:18:29;1.00;;;1.00;;
7233;SDS011;3658;47.992;10.158;2023-11-21T13:20:57;1.33;;;1.00;;
7233;SDS011;3658;47.992;10.158;2023-11-21T13:23:25;0.80;;;0.80;;
7233;SDS011;3658;47.992;10.158;2023-11-21T13:25:55;1.03;;;0.97;;
7233;SDS011;3658;47.992;10.158;2023-11-21T13:28:23;0.93;;;0.80;;
7233;SDS011;3658;47.992;10.158;2023-11-21T13:30:56;0.77;;;0.77;;
7233;SDS011;3658;47.992;10.158;2023-11-21T13:33:28;1.00;;;0.90;;
7233;SDS011;3658;47.992;10.158;2023-11-21T13:35:55;0.90;;;0.90;;
7233;SDS011;3658;47.992;10.158;2023-11-21T13:38:22;0.77;;;0.77;;
7233;SDS011;3658;47.992;10.158;2023-11-21T13:40:50;0.90;;;0.90;;
7233;SDS011;3658;47.992;10.158;2023-11-21T13:43:21;0.70;;;0.70;;
7233;SDS011;3658;47.992;10.158;2023-11-21T13:45:50;1.00;;;0.90;;
7233;SDS011;3658;47.992;10.158;2023-11-21T13:48:24;0.80;;;0.80;;
7233;SDS011;3658;47.992;10.158;2023-11-21T13:50:57;0.80;;;0.80;;
7233;SDS011;3658;47.992;10.158;2023-11-21T13:53:31;1.70;;;0.93;;
7233;SDS011;3658;47.992;10.158;2023-11-21T13:55:58;1.00;;;0.90;;
7233;SDS011;3658;47.992;10.158;2023-11-21T13:58:26;1.10;;;1.00;;
7233;SDS011;3658;47.992;10.158;2023-11-21T14:01:06;0.90;;;0.90;;
7233;SDS011;3658;47.992;10.158;2023-11-21T14:03:41;0.90;;;0.90;;
7233;SDS011;3658;47.992;10.158;2023-11-21T14:06:16;1.40;;;1.20;;
7233;SDS011;3658;47.992;10.158;2023-11-21T14:08:49;1.50;;;1.40;;
7233;SDS011;3658;47.992;10.158;2023-11-21T14:11:16;2.00;;;1.73;;
7233;SDS011;3658;47.992;10.158;2023-11-21T14:13:48;2.00;;;1.80;;
7233;SDS011;3658;47.992;10.158;2023-11-21T14:16:15;1.83;;;1.73;;
7233;SDS011;3658;47.992;10.158;2023-11-21T14:18:43;1.80;;;1.70;;
7233;SDS011;3658;47.992;10.158;2023-11-21T14:21:19;2.13;;;1.93;;
7233;SDS011;3658;47.992;10.158;2023-11-21T14:23:46;2.23;;;2.00;;
7233;SDS011;3658;47.992;10.158;2023-11-21T14:26:13;2.63;;;2.10;;
7233;SDS011;3658;47.992;10.158;2023-11-21T14:28:41;2.47;;;2.20;;
7233;SDS011;3658;47.992;10.158;2023-11-21T14:31:09;2.37;;;2.17;;
7233;SDS011;3658;47.992;10.158;2023-11-21T14:33:39;2.73;;;2.40;;
7233;SDS011;3658;47.992;10.158;2023-11-21T14:36:06;3.17;;;2.70;;
7233;SDS011;3658;47.992;10.158;2023-11-21T14:38:35;2.67;;;2.47;;
7233;SDS011;3658;47.992;10.158;2023-11-21T14:41:02;3.47;;;2.73;;
7233;SDS011;3658;47.992;10.158;2023-11-21T14:43:32;2.30;;;2.10;;
7233;SDS011;3658;47.992;10.158;2023-11-21T14:46:00;2.90;;;2.63;;
7233;SDS011;3658;47.992;10.158;2023-11-21T14:48:29;3.07;;;2.77;;
7233;SDS011;3658;47.992;10.158;2023-11-21T14:51:07;2.93;;;2.63;;
7233;SDS011;3658;47.992;10.158;2023-11-21T14:53:52;2.33;;;2.13;;
7233;SDS011;3658;47.992;10.158;2023-11-21T14:56:19;3.37;;;2.97;;
7233;SDS011;3658;47.992;10.158;2023-11-21T14:58:51;3.07;;;2.77;;
7233;SDS011;3658;47.992;10.158;2023-11-21T15:01:19;2.87;;;2.67;;
7233;SDS011;3658;47.992;10.158;2023-11-21T15:03:57;3.10;;;2.80;;
7233;SDS011;3658;47.992;10.158;2023-11-21T15:06:23;3.00;;;2.80;;
7233;SDS011;3658;47.992;10.158;2023-11-21T15:08:55;3.03;;;2.67;;
7233;SDS011;3658;47.992;10.158;2023-11-21T15:11:54;3.80;;;2.50;;